sensor_id;sensor_type;location;lat;lon;timestamp;pressure;altitude;pressure_sealevel;temperature;humidity
40872;BME280;26591;43.264;26.940;2024-02-26T00:01:09;98711.41;;;11.07;76.17
40872;BME280;26591;43.264;26.940;2024-02-26T00:03:35;98711.88;;;11.11;75.92
40872;BME280;26591;43.264;26.940;2024-02-26T00:06:02;98707.94;;;11.07;76.30
40872;BME280;26591;43.264;26.940;2024-02-26T00:08:28;98706.72;;;10.94;76.53
40872;BME280;26591;43.264;26.940;2024-02-26T00:10:53;98706.94;;;10.84;76.86
40872;BME280;26591;43.264;26.940;2024-02-26T00:13:19;98703.75;;;10.89;76.73
40872;BME280;26591;43.264;26.940;2024-02-26T00:15:47;98710.94;;;10.80;77.02
40872;BME280;26591;43.264;26.940;2024-02-26T00:18:13;98703.09;;;10.64;77.73
40872;BME280;26591;43.264;26.940;2024-02-26T00:20:39;98696.69;;;10.81;77.48
40872;BME280;26591;43.264;26.940;2024-02-26T00:23:05;98695.25;;;10.79;77.38
40872;BME280;26591;43.264;26.940;2024-02-26T00:25:30;98697.00;;;10.87;77.14
40872;BME280;26591;43.264;26.940;2024-02-26T00:27:56;98692.84;;;10.92;76.84
40872;BME280;26591;43.264;26.940;2024-02-26T00:30:22;98689.66;;;10.97;76.38
40872;BME280;26591;43.264;26.940;2024-02-26T00:32:48;98692.47;;;10.95;76.65
40872;BME280;26591;43.264;26.940;2024-02-26T00:35:13;98693.97;;;10.66;76.61
40872;BME280;26591;43.264;26.940;2024-02-26T00:37:40;98695.16;;;10.64;77.05
40872;BME280;26591;43.264;26.940;2024-02-26T00:40:08;98694.66;;;10.29;77.92
40872;BME280;26591;43.264;26.940;2024-02-26T00:42:34;98692.78;;;10.37;78.44
40872;BME280;26591;43.264;26.940;2024-02-26T00:44:59;98683.44;;;10.27;78.12
40872;BME280;26591;43.264;26.940;2024-02-26T00:47:25;98691.66;;;10.32;78.37
40872;BME280;26591;43.264;26.940;2024-02-26T00:49:50;98677.78;;;10.38;77.89
40872;BME280;26591;43.264;26.940;2024-02-26T00:52:16;98686.69;;;10.37;78.30
40872;BME280;26591;43.264;26.940;2024-02-26T00:54:41;98684.25;;;10.27;78.30
40872;BME280;26591;43.264;26.940;2024-02-26T00:57:07;98676.03;;;10.14;78.23
40872;BME280;26591;43.264;26.940;2024-02-26T00:59:32;98676.50;;;10.17;78.79
40872;BME280;26591;43.264;26.940;2024-02-26T01:01:58;98674.19;;;10.22;78.13
40872;BME280;26591;43.264;26.940;2024-02-26T01:04:25;98669.38;;;10.26;77.84
40872;BME280;26591;43.264;26.940;2024-02-26T01:06:50;98670.22;;;10.27;77.74
40872;BME280;26591;43.264;26.940;2024-02-26T01:09:16;98666.84;;;10.33;77.82
40872;BME280;26591;43.264;26.940;2024-02-26T01:11:43;98665.53;;;10.37;77.44
40872;BME280;26591;43.264;26.940;2024-02-26T01:14:08;98662.72;;;10.38;77.35
40872;BME280;26591;43.264;26.940;2024-02-26T01:16:34;98668.44;;;10.19;77.33
40872;BME280;26591;43.264;26.940;2024-02-26T01:18:59;98668.38;;;10.27;77.49
40872;BME280;26591;43.264;26.940;2024-02-26T01:21:25;98664.75;;;10.28;77.45
40872;BME280;26591;43.264;26.940;2024-02-26T01:23:54;98662.09;;;10.28;77.23
40872;BME280;26591;43.264;26.940;2024-02-26T01:26:19;98662.94;;;10.29;77.14
40872;BME280;26591;43.264;26.940;2024-02-26T01:28:46;98656.13;;;10.34;76.84
40872;BME280;26591;43.264;26.940;2024-02-26T01:31:12;98654.34;;;10.27;76.79
40872;BME280;26591;43.264;26.940;2024-02-26T01:33:37;98655.34;;;10.26;77.02
40872;BME280;26591;43.264;26.940;2024-02-26T01:36:03;98658.56;;;10.36;76.79
40872;BME280;26591;43.264;26.940;2024-02-26T01:38:28;98653.03;;;10.22;76.50
40872;BME280;26591;43.264;26.940;2024-02-26T01:40:54;98651.59;;;10.12;77.28
40872;BME280;26591;43.264;26.940;2024-02-26T01:43:39;98660.84;;;10.16;76.90
40872;BME280;26591;43.264;26.940;2024-02-26T01:46:05;98652.84;;;10.24;77.11
40872;BME280;26591;43.264;26.940;2024-02-26T01:48:30;98650.69;;;10.28;76.64
40872;BME280;26591;43.264;26.940;2024-02-26T01:50:56;98645.75;;;10.25;76.40
40872;BME280;26591;43.264;26.940;2024-02-26T01:53:22;98650.31;;;10.31;76.35
40872;BME280;26591;43.264;26.940;2024-02-26T01:56:07;98643.88;;;10.33;76.58
40872;BME280;26591;43.264;26.940;2024-02-26T01:58:34;98650.66;;;10.36;76.50
40872;BME280;26591;43.264;26.940;2024-02-26T02:01:01;98655.63;;;10.39;76.63
40872;BME280;26591;43.264;26.940;2024-02-26T02:03:28;98653.63;;;10.41;76.17
40872;BME280;26591;43.264;26.940;2024-02-26T02:05:54;98655.81;;;10.29;75.90
40872;BME280;26591;43.264;26.940;2024-02-26T02:08:19;98660.78;;;10.24;76.08
40872;BME280;26591;43.264;26.940;2024-02-26T02:10:45;98663.28;;;10.26;76.64
40872;BME280;26591;43.264;26.940;2024-02-26T02:13:13;98664.41;;;10.31;75.99
40872;BME280;26591;43.264;26.940;2024-02-26T02:15:39;98664.06;;;10.34;76.54
40872;BME280;26591;43.264;26.940;2024-02-26T02:18:05;98657.28;;;10.40;76.06
40872;BME280;26591;43.264;26.940;2024-02-26T02:20:35;98657.28;;;10.40;75.96
40872;BME280;26591;43.264;26.940;2024-02-26T02:23:01;98646.81;;;10.47;75.94
40872;BME280;26591;43.264;26.940;2024-02-26T02:25:27;98644.97;;;10.47;75.49
40872;BME280;26591;43.264;26.940;2024-02-26T02:27:54;98651.69;;;10.58;74.91
40872;BME280;26591;43.264;26.940;2024-02-26T02:30:29;98637.94;;;10.63;74.36
40872;BME280;26591;43.264;26.940;2024-02-26T02:32:55;98648.69;;;10.61;74.40
40872;BME280;26591;43.264;26.940;2024-02-26T02:35:22;98651.34;;;10.61;74.08
40872;BME280;26591;43.264;26.940;2024-02-26T02:37:48;98657.19;;;10.57;73.59
40872;BME280;26591;43.264;26.940;2024-02-26T02:40:13;98647.94;;;10.52;73.34
40872;BME280;26591;43.264;26.940;2024-02-26T02:42:39;98659.56;;;10.43;73.61
40872;BME280;26591;43.264;26.940;2024-02-26T02:45:04;98654.22;;;10.51;73.19
40872;BME280;26591;43.264;26.940;2024-02-26T02:47:30;98647.88;;;10.61;73.15
40872;BME280;26591;43.264;26.940;2024-02-26T02:49:55;98647.34;;;10.42;73.05
40872;BME280;26591;43.264;26.940;2024-02-26T02:52:21;98641.53;;;10.07;74.60
40872;BME280;26591;43.264;26.940;2024-02-26T02:54:46;98650.13;;;10.09;74.71
40872;BME280;26591;43.264;26.940;2024-02-26T02:57:12;98658.25;;;9.99;74.85
40872;BME280;26591;43.264;26.940;2024-02-26T02:59:37;98657.41;;;10.07;74.79
40872;BME280;26591;43.264;26.940;2024-02-26T03:02:03;98655.81;;;9.89;75.33
40872;BME280;26591;43.264;26.940;2024-02-26T03:04:29;98652.31;;;9.97;75.71
40872;BME280;26591;43.264;26.940;2024-02-26T03:06:55;98652.44;;;10.12;75.84
40872;BME280;26591;43.264;26.940;2024-02-26T03:09:20;98659.06;;;10.08;75.31
40872;BME280;26591;43.264;26.940;2024-02-26T03:11:46;98661.69;;;10.08;75.61
40872;BME280;26591;43.264;26.940;2024-02-26T03:14:11;98659.09;;;10.00;75.72
40872;BME280;26591;43.264;26.940;2024-02-26T03:16:37;98652.91;;;10.16;75.59
40872;BME280;26591;43.264;26.940;2024-02-26T03:19:02;98653.50;;;10.26;75.16
40872;BME280;26591;43.264;26.940;2024-02-26T03:21:28;98658.25;;;10.31;74.91
40872;BME280;26591;43.264;26.940;2024-02-26T03:23:54;98656.09;;;10.43;74.10
40872;BME280;26591;43.264;26.940;2024-02-26T03:26:19;98652.56;;;10.50;73.85
40872;BME280;26591;43.264;26.940;2024-02-26T03:28:45;98652.34;;;10.29;73.49
40872;BME280;26591;43.264;26.940;2024-02-26T03:31:10;98644.78;;;10.17;74.09
40872;BME280;26591;43.264;26.940;2024-02-26T03:33:36;98648.16;;;10.03;74.97
40872;BME280;26591;43.264;26.940;2024-02-26T03:36:01;98646.16;;;10.05;74.82
40872;BME280;26591;43.264;26.940;2024-02-26T03:38:28;98650.81;;;10.03;74.58
40872;BME280;26591;43.264;26.940;2024-02-26T03:40:54;98648.41;;;10.16;74.39
40872;BME280;26591;43.264;26.940;2024-02-26T03:43:19;98645.34;;;10.04;74.63
40872;BME280;26591;43.264;26.940;2024-02-26T03:45:45;98645.22;;;9.98;74.31
40872;BME280;26591;43.264;26.940;2024-02-26T03:48:11;98643.31;;;9.83;74.70
40872;BME280;26591;43.264;26.940;2024-02-26T03:50:36;98656.13;;;9.95;74.70
40872;BME280;26591;43.264;26.940;2024-02-26T03:53:01;98650.47;;;10.06;74.40
40872;BME280;26591;43.264;26.940;2024-02-26T03:55:27;98649.53;;;10.22;73.99
40872;BME280;26591;43.264;26.940;2024-02-26T03:57:52;98647.53;;;10.32;74.15
40872;BME280;26591;43.264;26.940;2024-02-26T04:00:19;98650.34;;;10.39;73.58
40872;BME280;26591;43.264;26.940;2024-02-26T04:02:46;98653.56;;;10.49;73.09
40872;BME280;26591;43.264;26.940;2024-02-26T04:05:11;98650.25;;;10.56;72.67
40872;BME280;26591;43.264;26.940;2024-02-26T04:07:37;98660.38;;;10.44;72.58
40872;BME280;26591;43.264;26.940;2024-02-26T04:10:03;98657.44;;;10.38;72.38
40872;BME280;26591;43.264;26.940;2024-02-26T04:12:31;98665.66;;;10.04;72.60
40872;BME280;26591;43.264;26.940;2024-02-26T04:14:56;98663.09;;;9.87;73.84
40872;BME280;26591;43.264;26.940;2024-02-26T04:17:22;98653.97;;;9.98;73.48
40872;BME280;26591;43.264;26.940;2024-02-26T04:19:48;98659.50;;;9.72;73.49
40872;BME280;26591;43.264;26.940;2024-02-26T04:22:13;98655.81;;;9.89;73.10
40872;BME280;26591;43.264;26.940;2024-02-26T04:24:39;98654.38;;;10.18;72.73
40872;BME280;26591;43.264;26.940;2024-02-26T04:27:04;98650.94;;;10.10;72.79
40872;BME280;26591;43.264;26.940;2024-02-26T04:29:30;98657.78;;;9.96;72.66
40872;BME280;26591;43.264;26.940;2024-02-26T04:31:55;98654.34;;;9.78;72.79
40872;BME280;26591;43.264;26.940;2024-02-26T04:34:20;98655.03;;;9.81;73.24
40872;BME280;26591;43.264;26.940;2024-02-26T04:36:46;98642.69;;;9.56;73.09
40872;BME280;26591;43.264;26.940;2024-02-26T04:39:13;98648.69;;;9.42;74.21
40872;BME280;26591;43.264;26.940;2024-02-26T04:41:38;98635.63;;;9.57;73.74
40872;BME280;26591;43.264;26.940;2024-02-26T04:44:05;98632.47;;;9.61;73.45
40872;BME280;26591;43.264;26.940;2024-02-26T04:46:30;98636.19;;;9.03;74.94
40872;BME280;26591;43.264;26.940;2024-02-26T04:48:56;98643.97;;;9.04;75.00
40872;BME280;26591;43.264;26.940;2024-02-26T04:51:21;98646.25;;;8.99;75.77
40872;BME280;26591;43.264;26.940;2024-02-26T04:53:47;98655.00;;;9.08;75.50
40872;BME280;26591;43.264;26.940;2024-02-26T04:56:12;98652.03;;;8.78;76.28
40872;BME280;26591;43.264;26.940;2024-02-26T04:58:38;98649.69;;;8.50;77.14
40872;BME280;26591;43.264;26.940;2024-02-26T05:01:03;98651.03;;;8.87;76.69
40872;BME280;26591;43.264;26.940;2024-02-26T05:03:29;98655.81;;;8.83;76.17
40872;BME280;26591;43.264;26.940;2024-02-26T05:05:55;98656.63;;;8.84;75.77
40872;BME280;26591;43.264;26.940;2024-02-26T05:08:22;98656.16;;;8.80;76.25
40872;BME280;26591;43.264;26.940;2024-02-26T05:10:48;98657.63;;;8.99;75.92
40872;BME280;26591;43.264;26.940;2024-02-26T05:13:13;98657.13;;;9.21;75.42
40872;BME280;26591;43.264;26.940;2024-02-26T05:15:40;98661.22;;;9.48;74.26
40872;BME280;26591;43.264;26.940;2024-02-26T05:18:06;98656.41;;;9.60;73.95
40872;BME280;26591;43.264;26.940;2024-02-26T05:20:32;98663.13;;;9.71;73.56
40872;BME280;26591;43.264;26.940;2024-02-26T05:23:00;98675.81;;;9.92;73.04
40872;BME280;26591;43.264;26.940;2024-02-26T05:25:26;98680.06;;;10.01;72.50
40872;BME280;26591;43.264;26.940;2024-02-26T05:27:51;98682.47;;;10.19;72.44
40872;BME280;26591;43.264;26.940;2024-02-26T05:30:17;98679.78;;;10.28;72.03
40872;BME280;26591;43.264;26.940;2024-02-26T05:32:45;98686.69;;;10.37;71.65
40872;BME280;26591;43.264;26.940;2024-02-26T05:35:11;98693.13;;;10.43;71.76
40872;BME280;26591;43.264;26.940;2024-02-26T05:37:36;98698.03;;;10.54;71.68
40872;BME280;26591;43.264;26.940;2024-02-26T05:40:02;98697.16;;;10.62;71.95
40872;BME280;26591;43.264;26.940;2024-02-26T05:42:29;98694.94;;;10.74;72.40
40872;BME280;26591;43.264;26.940;2024-02-26T05:44:55;98697.63;;;10.89;72.14
40872;BME280;26591;43.264;26.940;2024-02-26T05:47:20;98697.06;;;11.02;71.65
40872;BME280;26591;43.264;26.940;2024-02-26T05:49:46;98698.22;;;10.76;71.16
40872;BME280;26591;43.264;26.940;2024-02-26T05:52:11;98707.31;;;10.50;71.09
40872;BME280;26591;43.264;26.940;2024-02-26T05:54:37;98714.19;;;10.28;71.93
40872;BME280;26591;43.264;26.940;2024-02-26T05:57:02;98716.41;;;10.47;71.30
40872;BME280;26591;43.264;26.940;2024-02-26T05:59:28;98707.78;;;10.53;71.95
40872;BME280;26591;43.264;26.940;2024-02-26T06:01:54;98706.19;;;10.76;71.47
40872;BME280;26591;43.264;26.940;2024-02-26T06:04:20;98719.31;;;10.61;71.94
40872;BME280;26591;43.264;26.940;2024-02-26T06:06:45;98724.34;;;10.79;71.56
40872;BME280;26591;43.264;26.940;2024-02-26T06:09:11;98728.28;;;10.83;71.22
40872;BME280;26591;43.264;26.940;2024-02-26T06:11:37;98726.38;;;11.00;71.22
40872;BME280;26591;43.264;26.940;2024-02-26T06:14:03;98729.81;;;11.24;69.87
40872;BME280;26591;43.264;26.940;2024-02-26T06:16:28;98726.47;;;11.30;69.01
40872;BME280;26591;43.264;26.940;2024-02-26T06:18:54;98732.44;;;11.47;69.08
40872;BME280;26591;43.264;26.940;2024-02-26T06:21:19;98727.06;;;11.55;69.27
40872;BME280;26591;43.264;26.940;2024-02-26T06:23:45;98721.88;;;11.77;68.50
40872;BME280;26591;43.264;26.940;2024-02-26T06:26:10;98721.28;;;11.90;67.71
40872;BME280;26591;43.264;26.940;2024-02-26T06:28:36;98712.03;;;12.01;67.61
40872;BME280;26591;43.264;26.940;2024-02-26T06:31:02;98706.63;;;12.24;67.44
40872;BME280;26591;43.264;26.940;2024-02-26T06:33:28;98718.16;;;12.31;66.43
40872;BME280;26591;43.264;26.940;2024-02-26T06:35:53;98714.91;;;12.51;65.66
40872;BME280;26591;43.264;26.940;2024-02-26T06:38:18;98719.13;;;12.60;64.49
40872;BME280;26591;43.264;26.940;2024-02-26T06:40:45;98726.81;;;12.55;64.39
40872;BME280;26591;43.264;26.940;2024-02-26T06:43:11;98725.41;;;12.23;64.85
40872;BME280;26591;43.264;26.940;2024-02-26T06:45:36;98726.69;;;12.27;65.46
40872;BME280;26591;43.264;26.940;2024-02-26T06:48:02;98734.34;;;12.36;65.36
40872;BME280;26591;43.264;26.940;2024-02-26T06:50:27;98727.94;;;12.46;64.64
40872;BME280;26591;43.264;26.940;2024-02-26T06:52:53;98726.63;;;12.57;65.25
40872;BME280;26591;43.264;26.940;2024-02-26T06:55:18;98722.25;;;12.49;64.26
40872;BME280;26591;43.264;26.940;2024-02-26T06:57:44;98727.88;;;12.61;64.56
40872;BME280;26591;43.264;26.940;2024-02-26T07:00:10;98731.03;;;12.49;64.42
40872;BME280;26591;43.264;26.940;2024-02-26T07:02:40;98733.13;;;12.54;64.53
40872;BME280;26591;43.264;26.940;2024-02-26T07:05:06;98732.16;;;12.77;63.64
40872;BME280;26591;43.264;26.940;2024-02-26T07:07:32;98736.97;;;12.88;63.64
40872;BME280;26591;43.264;26.940;2024-02-26T07:09:57;98734.94;;;13.12;62.85
40872;BME280;26591;43.264;26.940;2024-02-26T07:12:23;98741.28;;;13.33;62.87
40872;BME280;26591;43.264;26.940;2024-02-26T07:14:49;98742.81;;;13.20;62.09
40872;BME280;26591;43.264;26.940;2024-02-26T07:17:15;98743.28;;;13.31;62.10
40872;BME280;26591;43.264;26.940;2024-02-26T07:19:41;98745.56;;;13.55;62.09
40872;BME280;26591;43.264;26.940;2024-02-26T07:22:07;98745.41;;;13.57;61.91
40872;BME280;26591;43.264;26.940;2024-02-26T07:24:33;98745.63;;;13.62;62.22
40872;BME280;26591;43.264;26.940;2024-02-26T07:26:58;98751.03;;;13.76;62.36
40872;BME280;26591;43.264;26.940;2024-02-26T07:29:24;98750.41;;;14.02;61.60
40872;BME280;26591;43.264;26.940;2024-02-26T07:31:49;98741.97;;;14.33;61.39
40872;BME280;26591;43.264;26.940;2024-02-26T07:34:15;98750.69;;;14.56;60.42
40872;BME280;26591;43.264;26.940;2024-02-26T07:36:40;98748.94;;;14.90;58.49
40872;BME280;26591;43.264;26.940;2024-02-26T07:39:05;98746.94;;;15.12;57.92
40872;BME280;26591;43.264;26.940;2024-02-26T07:41:31;98753.75;;;15.48;57.75
40872;BME280;26591;43.264;26.940;2024-02-26T07:43:56;98751.47;;;15.72;56.18
40872;BME280;26591;43.264;26.940;2024-02-26T07:46:22;98745.94;;;16.00;55.65
40872;BME280;26591;43.264;26.940;2024-02-26T07:48:47;98750.66;;;15.78;55.25
40872;BME280;26591;43.264;26.940;2024-02-26T07:51:13;98742.44;;;15.73;55.07
40872;BME280;26591;43.264;26.940;2024-02-26T07:53:39;98754.53;;;15.76;55.56
40872;BME280;26591;43.264;26.940;2024-02-26T07:56:05;98754.38;;;15.64;55.25
40872;BME280;26591;43.264;26.940;2024-02-26T07:58:32;98746.34;;;15.77;54.90
40872;BME280;26591;43.264;26.940;2024-02-26T08:00:58;98752.31;;;15.73;56.07
40872;BME280;26591;43.264;26.940;2024-02-26T08:03:23;98754.78;;;15.88;56.87
40872;BME280;26591;43.264;26.940;2024-02-26T08:05:50;98745.13;;;15.93;56.63
40872;BME280;26591;43.264;26.940;2024-02-26T08:08:16;98743.88;;;15.89;56.70
40872;BME280;26591;43.264;26.940;2024-02-26T08:10:41;98752.09;;;15.94;57.07
40872;BME280;26591;43.264;26.940;2024-02-26T08:13:15;98752.25;;;16.20;56.44
40872;BME280;26591;43.264;26.940;2024-02-26T08:15:43;98745.53;;;15.63;56.59
40872;BME280;26591;43.264;26.940;2024-02-26T08:18:09;98742.22;;;15.75;57.28
40872;BME280;26591;43.264;26.940;2024-02-26T08:20:34;98745.19;;;16.39;56.50
40872;BME280;26591;43.264;26.940;2024-02-26T08:23:00;98747.56;;;16.01;55.99
40872;BME280;26591;43.264;26.940;2024-02-26T08:25:25;98737.66;;;16.15;57.13
40872;BME280;26591;43.264;26.940;2024-02-26T08:27:51;98746.13;;;16.58;57.00
40872;BME280;26591;43.264;26.940;2024-02-26T08:30:17;98740.69;;;16.32;55.96
40872;BME280;26591;43.264;26.940;2024-02-26T08:32:43;98742.69;;;16.51;56.10
40872;BME280;26591;43.264;26.940;2024-02-26T08:35:09;98743.66;;;16.63;54.62
40872;BME280;26591;43.264;26.940;2024-02-26T08:37:35;98744.56;;;16.43;56.17
40872;BME280;26591;43.264;26.940;2024-02-26T08:40:00;98743.47;;;16.58;56.18
40872;BME280;26591;43.264;26.940;2024-02-26T08:42:26;98741.97;;;16.75;54.73
40872;BME280;26591;43.264;26.940;2024-02-26T08:44:51;98743.69;;;16.56;54.84
40872;BME280;26591;43.264;26.940;2024-02-26T08:47:16;98756.19;;;16.62;55.20
40872;BME280;26591;43.264;26.940;2024-02-26T08:49:44;98746.16;;;16.51;55.01
40872;BME280;26591;43.264;26.940;2024-02-26T08:52:09;98743.69;;;16.56;54.90
40872;BME280;26591;43.264;26.940;2024-02-26T08:54:35;98740.53;;;16.21;56.20
40872;BME280;26591;43.264;26.940;2024-02-26T08:57:00;98738.16;;;15.85;57.71
40872;BME280;26591;43.264;26.940;2024-02-26T08:59:25;98738.53;;;16.09;56.70
40872;BME280;26591;43.264;26.940;2024-02-26T09:01:51;98742.97;;;16.29;56.12
40872;BME280;26591;43.264;26.940;2024-02-26T09:04:16;98740.06;;;16.44;55.58
40872;BME280;26591;43.264;26.940;2024-02-26T09:06:42;98741.03;;;16.56;56.22
40872;BME280;26591;43.264;26.940;2024-02-26T09:09:07;98732.91;;;16.76;54.18
40872;BME280;26591;43.264;26.940;2024-02-26T09:11:36;98737.75;;;17.00;54.41
40872;BME280;26591;43.264;26.940;2024-02-26T09:14:02;98730.09;;;17.35;53.56
40872;BME280;26591;43.264;26.940;2024-02-26T09:16:29;98725.97;;;17.58;52.85
40872;BME280;26591;43.264;26.940;2024-02-26T09:18:55;98718.88;;;17.71;52.62
40872;BME280;26591;43.264;26.940;2024-02-26T09:21:20;98726.00;;;17.77;52.84
40872;BME280;26591;43.264;26.940;2024-02-26T09:23:52;98727.66;;;18.03;52.34
40872;BME280;26591;43.264;26.940;2024-02-26T09:26:18;98723.41;;;18.14;51.88
40872;BME280;26591;43.264;26.940;2024-02-26T09:28:44;98720.81;;;17.82;51.64
40872;BME280;26591;43.264;26.940;2024-02-26T09:31:10;98724.97;;;17.78;52.08
40872;BME280;26591;43.264;26.940;2024-02-26T09:34:03;98714.16;;;17.66;52.33
40872;BME280;26591;43.264;26.940;2024-02-26T09:36:29;98719.16;;;17.37;52.61
40872;BME280;26591;43.264;26.940;2024-02-26T09:38:54;98713.91;;;17.49;52.40
40872;BME280;26591;43.264;26.940;2024-02-26T09:41:20;98719.03;;;17.76;52.73
40872;BME280;26591;43.264;26.940;2024-02-26T09:43:48;98718.34;;;17.62;52.24
40872;BME280;26591;43.264;26.940;2024-02-26T09:46:28;98716.38;;;17.50;52.95
40872;BME280;26591;43.264;26.940;2024-02-26T09:48:54;98708.63;;;17.42;53.88
40872;BME280;26591;43.264;26.940;2024-02-26T09:51:22;98716.22;;;17.89;52.08
40872;BME280;26591;43.264;26.940;2024-02-26T09:54:01;98701.94;;;17.33;52.56
40872;BME280;26591;43.264;26.940;2024-02-26T09:56:27;98707.81;;;17.42;52.53
40872;BME280;26591;43.264;26.940;2024-02-26T09:58:54;98704.41;;;17.97;51.59
40872;BME280;26591;43.264;26.940;2024-02-26T10:01:21;98703.28;;;17.86;51.08
40872;BME280;26591;43.264;26.940;2024-02-26T10:03:58;98705.97;;;17.86;51.68
40872;BME280;26591;43.264;26.940;2024-02-26T10:06:27;98706.81;;;18.05;50.64
40872;BME280;26591;43.264;26.940;2024-02-26T10:08:54;98698.72;;;18.30;49.94
40872;BME280;26591;43.264;26.940;2024-02-26T10:11:20;98696.84;;;18.92;49.07
40872;BME280;26591;43.264;26.940;2024-02-26T10:13:46;98697.06;;;18.90;48.47
40872;BME280;26591;43.264;26.940;2024-02-26T10:16:11;98696.59;;;18.82;48.53
40872;BME280;26591;43.264;26.940;2024-02-26T10:18:50;98699.44;;;18.68;47.79
40872;BME280;26591;43.264;26.940;2024-02-26T10:21:17;98691.81;;;18.53;48.61
40872;BME280;26591;43.264;26.940;2024-02-26T10:23:45;98690.44;;;18.32;49.67
40872;BME280;26591;43.264;26.940;2024-02-26T10:26:12;98682.06;;;18.40;48.56
40872;BME280;26591;43.264;26.940;2024-02-26T10:28:39;98681.19;;;18.47;48.87
40872;BME280;26591;43.264;26.940;2024-02-26T10:31:04;98675.69;;;18.72;49.35
40872;BME280;26591;43.264;26.940;2024-02-26T10:33:33;98665.44;;;19.11;48.14
40872;BME280;26591;43.264;26.940;2024-02-26T10:36:01;98664.34;;;19.00;47.65
40872;BME280;26591;43.264;26.940;2024-02-26T10:38:26;98675.00;;;19.19;47.04
40872;BME280;26591;43.264;26.940;2024-02-26T10:40:52;98666.50;;;18.91;46.74
40872;BME280;26591;43.264;26.940;2024-02-26T10:43:17;98658.44;;;19.22;46.48
40872;BME280;26591;43.264;26.940;2024-02-26T10:45:43;98668.03;;;19.30;45.97
40872;BME280;26591;43.264;26.940;2024-02-26T10:48:13;98661.09;;;18.98;47.05
40872;BME280;26591;43.264;26.940;2024-02-26T10:50:39;98665.06;;;19.19;46.19
40872;BME280;26591;43.264;26.940;2024-02-26T10:53:13;98652.94;;;19.17;46.19
40872;BME280;26591;43.264;26.940;2024-02-26T10:55:41;98659.50;;;19.21;47.03
40872;BME280;26591;43.264;26.940;2024-02-26T10:58:08;98653.41;;;19.14;47.25
40872;BME280;26591;43.264;26.940;2024-02-26T11:00:35;98644.13;;;18.86;46.85
40872;BME280;26591;43.264;26.940;2024-02-26T11:03:02;98643.97;;;19.35;46.13
40872;BME280;26591;43.264;26.940;2024-02-26T11:05:31;98641.28;;;19.35;46.13
40872;BME280;26591;43.264;26.940;2024-02-26T11:07:59;98627.97;;;19.64;46.07
40872;BME280;26591;43.264;26.940;2024-02-26T11:10:26;98627.06;;;19.58;45.58
40872;BME280;26591;43.264;26.940;2024-02-26T11:12:52;98628.84;;;19.41;45.80
40872;BME280;26591;43.264;26.940;2024-02-26T11:15:19;98626.41;;;18.85;47.67
40872;BME280;26591;43.264;26.940;2024-02-26T11:17:46;98621.34;;;18.65;47.80
40872;BME280;26591;43.264;26.940;2024-02-26T11:20:11;98624.28;;;18.63;47.68
40872;BME280;26591;43.264;26.940;2024-02-26T11:22:38;98625.56;;;19.27;46.72
40872;BME280;26591;43.264;26.940;2024-02-26T11:25:04;98625.09;;;19.18;47.17
40872;BME280;26591;43.264;26.940;2024-02-26T11:27:36;98618.09;;;19.17;46.92
40872;BME280;26591;43.264;26.940;2024-02-26T11:30:05;98613.16;;;19.49;45.83
40872;BME280;26591;43.264;26.940;2024-02-26T11:32:33;98613.72;;;19.87;45.71
40872;BME280;26591;43.264;26.940;2024-02-26T11:35:00;98618.06;;;19.76;44.67
40872;BME280;26591;43.264;26.940;2024-02-26T11:37:26;98611.78;;;19.59;45.22
40872;BME280;26591;43.264;26.940;2024-02-26T11:39:52;98609.97;;;20.00;45.28
40872;BME280;26591;43.264;26.940;2024-02-26T11:42:23;98612.16;;;19.39;46.51
40872;BME280;26591;43.264;26.940;2024-02-26T11:44:49;98610.66;;;19.83;46.42
40872;BME280;26591;43.264;26.940;2024-02-26T11:47:19;98609.03;;;19.94;45.73
40872;BME280;26591;43.264;26.940;2024-02-26T11:49:45;98618.97;;;20.52;44.86
40872;BME280;26591;43.264;26.940;2024-02-26T11:52:13;98611.78;;;19.59;44.86
40872;BME280;26591;43.264;26.940;2024-02-26T11:54:50;98615.47;;;19.93;44.73
40872;BME280;26591;43.264;26.940;2024-02-26T12:00:12;98605.66;;;19.87;45.15
40872;BME280;26591;43.264;26.940;2024-02-26T12:02:50;98605.38;;;19.36;46.42
40872;BME280;26591;43.264;26.940;2024-02-26T12:05:24;98605.50;;;19.41;46.33
40872;BME280;26591;43.264;26.940;2024-02-26T12:08:00;98603.75;;;19.23;46.41
40872;BME280;26591;43.264;26.940;2024-02-26T12:10:31;98599.00;;;18.83;46.93
40872;BME280;26591;43.264;26.940;2024-02-26T12:13:06;98609.78;;;18.52;46.76
40872;BME280;26591;43.264;26.940;2024-02-26T12:15:45;98596.50;;;18.45;46.61
40872;BME280;26591;43.264;26.940;2024-02-26T12:18:20;98593.22;;;18.43;46.70
40872;BME280;26591;43.264;26.940;2024-02-26T12:20:46;98587.94;;;18.79;45.36
40872;BME280;26591;43.264;26.940;2024-02-26T12:23:16;98590.94;;;18.59;45.15
40872;BME280;26591;43.264;26.940;2024-02-26T12:25:44;98590.38;;;18.69;44.89
40872;BME280;26591;43.264;26.940;2024-02-26T12:28:14;98589.34;;;18.70;43.58
40872;BME280;26591;43.264;26.940;2024-02-26T12:30:39;98576.00;;;18.51;43.09
40872;BME280;26591;43.264;26.940;2024-02-26T12:33:05;98586.22;;;18.42;42.66
40872;BME280;26591;43.264;26.940;2024-02-26T12:35:34;98583.50;;;18.00;44.48
40872;BME280;26591;43.264;26.940;2024-02-26T12:38:00;98585.78;;;18.45;43.57
40872;BME280;26591;43.264;26.940;2024-02-26T12:40:26;98585.25;;;18.67;43.14
40872;BME280;26591;43.264;26.940;2024-02-26T12:42:53;98575.44;;;18.61;42.61
40872;BME280;26591;43.264;26.940;2024-02-26T12:45:20;98577.16;;;18.43;42.26
40872;BME280;26591;43.264;26.940;2024-02-26T12:47:46;98589.13;;;18.83;41.56
40872;BME280;26591;43.264;26.940;2024-02-26T12:50:13;98589.19;;;18.65;41.40